^^
Paulen-Weather Station Historical Data
Daily Summary for May 28, 2022 Units:  Both    English   Metric
Daily Weekly Monthly Yearly Custom
  High: Low: Average:
Temperature: 53.6 °F /  12 °C 50 °F /  10 °C 50.5 °F /  10.3 °C
Dew Point: 41 °F /  5 °C 41 °F /  5 °C 41 °F /  5 °C
Humidity: 72% 65% 69%
Wind Speed: 16.8mph /  27km/h - 13.6mph /  21.9km/h
Wind Gust: 14.9mph /  24km/h - -
Wind- - North
Pressure: 29.8 in /  1007.99 hPa 29.7 in /  1005.99 hPa -
Precipitation: 0 in /  0 mm    
Historical Graphs
 
 
Tabular Data for May 28, 2022
Time Temperature Dew Point Pressure Wind Wind Speed Wind Gust Humidity Rainfall Rate (Hourly) solar
00:04 51.8 °F /  11 °C 41 °F /  5 °C 29.7in /  1005.99hPa N 16.8mph /  27km/h 13mph /  21km/h 67% 0in /  0mm 0 W/m2
00:09 51.8 °F /  11 °C 41 °F /  5 °C 29.7in /  1006.13hPa N 13mph /  21km/h 11.2mph /  18km/h 67% 0in /  0mm 0 W/m2
00:14 51.8 °F /  11 °C 41 °F /  5 °C 29.7in /  1006.16hPa N 14.9mph /  24km/h 13mph /  21km/h 67% 0in /  0mm 0 W/m2
00:19 51.8 °F /  11 °C 41 °F /  5 °C 29.7in /  1006.16hPa N 15.5mph /  25km/h 12.4mph /  20km/h 67% 0in /  0mm 0 W/m2
00:24 51.8 °F /  11 °C 41 °F /  5 °C 29.7in /  1006.2hPa N 15.5mph /  25km/h 12.4mph /  20km/h 68% 0in /  0mm 0 W/m2
00:29 50 °F /  10 °C 41 °F /  5 °C 29.7in /  1006.2hPa N 16.2mph /  26km/h 11.8mph /  19km/h 68% 0in /  0mm 0 W/m2
00:34 50 °F /  10 °C 41 °F /  5 °C 29.7in /  1006.23hPa N 16.2mph /  26km/h 13mph /  21km/h 68% 0in /  0mm 0 W/m2
00:39 51.8 °F /  11 °C 41 °F /  5 °C 29.7in /  1006.2hPa N 16.2mph /  26km/h 13.7mph /  22km/h 69% 0in /  0mm 0 W/m2
00:44 51.8 °F /  11 °C 41 °F /  5 °C 29.7in /  1006.23hPa N 16.8mph /  27km/h 14.3mph /  23km/h 68% 0in /  0mm 0 W/m2
00:49 51.8 °F /  11 °C 41 °F /  5 °C 29.7in /  1006.27hPa N 16.8mph /  27km/h 13.7mph /  22km/h 68% 0in /  0mm 0 W/m2
00:54 51.8 °F /  11 °C 41 °F /  5 °C 29.7in /  1006.27hPa N 16.2mph /  26km/h 14.3mph /  23km/h 68% 0in /  0mm 0 W/m2
00:59 50 °F /  10 °C 41 °F /  5 °C 29.7in /  1006.3hPa N 14.3mph /  23km/h 11.8mph /  19km/h 68% 0in /  0mm 0 W/m2
01:04 50 °F /  10 °C 41 °F /  5 °C 29.7in /  1006.3hPa N 16.2mph /  26km/h 12.4mph /  20km/h 68% 0in /  0mm 0 W/m2
01:09 50 °F /  10 °C 41 °F /  5 °C 29.7in /  1006.33hPa N 15.5mph /  25km/h 12.4mph /  20km/h 68% 0in /  0mm 0 W/m2
01:14 50 °F /  10 °C 41 °F /  5 °C 29.7in /  1006.3hPa N 15.5mph /  25km/h 12.4mph /  20km/h 69% 0in /  0mm 0 W/m2
01:19 50 °F /  10 °C 41 °F /  5 °C 29.7in /  1006.33hPa N 14.9mph /  24km/h 12.4mph /  20km/h 69% 0in /  0mm 0 W/m2
01:24 50 °F /  10 °C 41 °F /  5 °C 29.7in /  1006.37hPa N 14.9mph /  24km/h 13mph /  21km/h 69% 0in /  0mm 0 W/m2
01:29 50 °F /  10 °C 41 °F /  5 °C 29.7in /  1006.37hPa N 14.3mph /  23km/h 11.8mph /  19km/h 69% 0in /  0mm 0 W/m2
01:34 50 °F /  10 °C 41 °F /  5 °C 29.7in /  1006.37hPa N 16.8mph /  27km/h 14.9mph /  24km/h 69% 0in /  0mm 0 W/m2
01:39 50 °F /  10 °C 41 °F /  5 °C 29.7in /  1006.4hPa N 14.3mph /  23km/h 13mph /  21km/h 69% 0in /  0mm 0 W/m2
01:44 50 °F /  10 °C 41 °F /  5 °C 29.7in /  1006.47hPa N 14.3mph /  23km/h 13mph /  21km/h 69% 0in /  0mm 0 W/m2
01:49 50 °F /  10 °C 41 °F /  5 °C 29.7in /  1006.5hPa N 14.3mph /  23km/h 12.4mph /  20km/h 69% 0in /  0mm 0 W/m2
01:54 50 °F /  10 °C 41 °F /  5 °C 29.7in /  1006.5hPa N 13.7mph /  22km/h 12.4mph /  20km/h 69% 0in /  0mm 0 W/m2
01:59 50 °F /  10 °C 41 °F /  5 °C 29.7in /  1006.54hPa N 13mph /  21km/h 11.8mph /  19km/h 70% 0in /  0mm 0 W/m2
02:04 50 °F /  10 °C 41 °F /  5 °C 29.7in /  1006.54hPa N 15.5mph /  25km/h 13mph /  21km/h 70% 0in /  0mm 0 W/m2
02:09 50 °F /  10 °C 41 °F /  5 °C 29.7in /  1006.54hPa N 14.3mph /  23km/h 13mph /  21km/h 71% 0in /  0mm 0 W/m2
02:14 50 °F /  10 °C 41 °F /  5 °C 29.7in /  1006.54hPa N 13.7mph /  22km/h 13.7mph /  22km/h 71% 0in /  0mm 0 W/m2
02:19 50 °F /  10 °C 41 °F /  5 °C 29.7in /  1006.57hPa N 13.7mph /  22km/h 12.4mph /  20km/h 71% 0in /  0mm 0 W/m2
02:24 50 °F /  10 °C 41 °F /  5 °C 29.7in /  1006.57hPa N 12.4mph /  20km/h 11.2mph /  18km/h 72% 0in /  0mm 0 W/m2
02:29 50 °F /  10 °C 41 °F /  5 °C 29.7in /  1006.6hPa N 13mph /  21km/h 11.8mph /  19km/h 72% 0in /  0mm 0 W/m2
02:34 50 °F /  10 °C 41 °F /  5 °C 29.7in /  1006.57hPa N 13.7mph /  22km/h 12.4mph /  20km/h 71% 0in /  0mm 0 W/m2
02:39 50 °F /  10 °C 41 °F /  5 °C 29.7in /  1006.6hPa N 11.8mph /  19km/h 10.6mph /  17km/h 72% 0in /  0mm 0 W/m2
02:44 50 °F /  10 °C 41 °F /  5 °C 29.7in /  1006.6hPa N 11.8mph /  19km/h 9.9mph /  16km/h 72% 0in /  0mm 0 W/m2
02:49 50 °F /  10 °C 41 °F /  5 °C 29.7in /  1006.6hPa NNW 9.9mph /  16km/h 9.9mph /  16km/h 72% 0in /  0mm 0 W/m2
02:54 50 °F /  10 °C 41 °F /  5 °C 29.7in /  1006.64hPa N 10.6mph /  17km/h 9.3mph /  15km/h 71% 0in /  0mm 0 W/m2
02:59 50 °F /  10 °C 41 °F /  5 °C 29.7in /  1006.67hPa NNW 11.2mph /  18km/h 10.6mph /  17km/h 70% 0in /  0mm 0 W/m2
03:04 50 °F /  10 °C 41 °F /  5 °C 29.7in /  1006.67hPa N 11.2mph /  18km/h 8.7mph /  14km/h 70% 0in /  0mm 0 W/m2
03:09 50 °F /  10 °C 41 °F /  5 °C 29.7in /  1006.74hPa NNW 11.8mph /  19km/h 9.9mph /  16km/h 70% 0in /  0mm 0 W/m2
03:14 50 °F /  10 °C 41 °F /  5 °C 29.7in /  1006.71hPa NNW 11.2mph /  18km/h 9.3mph /  15km/h 70% 0in /  0mm 0 W/m2
03:19 50 °F /  10 °C 41 °F /  5 °C 29.7in /  1006.71hPa NNW 10.6mph /  17km/h 9.3mph /  15km/h 69% 0in /  0mm 0 W/m2
03:24 50 °F /  10 °C 41 °F /  5 °C 29.7in /  1006.71hPa NNW 8.1mph /  13km/h 7.5mph /  12km/h 69% 0in /  0mm 0 W/m2
03:29 50 °F /  10 °C 41 °F /  5 °C 29.7in /  1006.77hPa NNW 9.3mph /  15km/h 9.3mph /  15km/h 70% 0in /  0mm 0 W/m2
03:34 50 °F /  10 °C 41 °F /  5 °C 29.7in /  1006.77hPa NNW 11.2mph /  18km/h 9.3mph /  15km/h 70% 0in /  0mm 0 W/m2
03:39 50 °F /  10 °C 41 °F /  5 °C 29.7in /  1006.77hPa NNW 11.2mph /  18km/h 9.3mph /  15km/h 70% 0in /  0mm 0 W/m2
03:44 50 °F /  10 °C 41 °F /  5 °C 29.7in /  1006.81hPa NNW 11.8mph /  19km/h 11.2mph /  18km/h 70% 0in /  0mm 0 W/m2
03:49 50 °F /  10 °C 41 °F /  5 °C 29.7in /  1006.77hPa N 12.4mph /  20km/h 11.8mph /  19km/h 70% 0in /  0mm 0 W/m2
03:54 50 °F /  10 °C 41 °F /  5 °C 29.7in /  1006.81hPa N 13mph /  21km/h 12.4mph /  20km/h 70% 0in /  0mm 0 W/m2
03:59 50 °F /  10 °C 41 °F /  5 °C 29.7in /  1006.87hPa N 11.8mph /  19km/h 9.9mph /  16km/h 69% 0in /  0mm 0 W/m2
04:04 50 °F /  10 °C 41 °F /  5 °C 29.7in /  1006.94hPa N 11.2mph /  18km/h 9.9mph /  16km/h 70% 0in /  0mm 0 W/m2
04:09 50 °F /  10 °C 41 °F /  5 °C 29.7in /  1006.98hPa N 11.2mph /  18km/h 9.9mph /  16km/h 70% 0in /  0mm 0 W/m2
04:14 50 °F /  10 °C 41 °F /  5 °C 29.7in /  1007.01hPa N 11.8mph /  19km/h 10.6mph /  17km/h 70% 0in /  0mm 0 W/m2
04:19 50 °F /  10 °C 41 °F /  5 °C 29.7in /  1007.01hPa N 11.8mph /  19km/h 11.8mph /  19km/h 69% 0in /  0mm 0 W/m2
04:24 50 °F /  10 °C 41 °F /  5 °C 29.7in /  1007.04hPa N 11.8mph /  19km/h 10.6mph /  17km/h 70% 0in /  0mm 0 W/m2
04:29 50 °F /  10 °C 41 °F /  5 °C 29.7in /  1007.04hPa N 14.3mph /  23km/h 13.7mph /  22km/h 70% 0in /  0mm 0 W/m2
04:34 50 °F /  10 °C 41 °F /  5 °C 29.7in /  1007.11hPa N 13.7mph /  22km/h 12.4mph /  20km/h 70% 0in /  0mm 0 W/m2
04:39 50 °F /  10 °C 41 °F /  5 °C 29.7in /  1007.15hPa N 13mph /  21km/h 12.4mph /  20km/h 69% 0in /  0mm 0 W/m2
04:44 50 °F /  10 °C 41 °F /  5 °C 29.7in /  1007.18hPa N 13mph /  21km/h 11.8mph /  19km/h 70% 0in /  0mm 5 W/m2
04:49 50 °F /  10 °C 41 °F /  5 °C 29.7in /  1007.21hPa N 13mph /  21km/h 11.8mph /  19km/h 71% 0in /  0mm 5 W/m2
04:54 50 °F /  10 °C 41 °F /  5 °C 29.7in /  1007.21hPa N 13mph /  21km/h 11.8mph /  19km/h 70% 0in /  0mm 7 W/m2
04:59 50 °F /  10 °C 41 °F /  5 °C 29.7in /  1007.25hPa N 13.7mph /  22km/h 13mph /  21km/h 70% 0in /  0mm 9 W/m2
05:04 50 °F /  10 °C 41 °F /  5 °C 29.7in /  1007.28hPa N 13mph /  21km/h 12.4mph /  20km/h 70% 0in /  0mm 11 W/m2
05:09 50 °F /  10 °C 41 °F /  5 °C 29.7in /  1007.28hPa N 13.7mph /  22km/h 11.8mph /  19km/h 70% 0in /  0mm 14 W/m2
05:14 50 °F /  10 °C 41 °F /  5 °C 29.7in /  1007.28hPa NNW 11.8mph /  19km/h 11.8mph /  19km/h 70% 0in /  0mm 16 W/m2
05:19 50 °F /  10 °C 41 °F /  5 °C 29.7in /  1007.28hPa N 11.8mph /  19km/h 10.6mph /  17km/h 70% 0in /  0mm 19 W/m2
05:24 50 °F /  10 °C 41 °F /  5 °C 29.8in /  1007.35hPa N 13mph /  21km/h 12.4mph /  20km/h 70% 0in /  0mm 28 W/m2
05:29 50 °F /  10 °C 41 °F /  5 °C 29.8in /  1007.35hPa N 14.3mph /  23km/h 13.7mph /  22km/h 70% 0in /  0mm 40 W/m2
05:34 50 °F /  10 °C 41 °F /  5 °C 29.8in /  1007.38hPa N 14.3mph /  23km/h 13mph /  21km/h 69% 0in /  0mm 53 W/m2
05:39 50 °F /  10 °C 41 °F /  5 °C 29.8in /  1007.45hPa N 14.3mph /  23km/h 13mph /  21km/h 69% 0in /  0mm 65 W/m2
05:44 50 °F /  10 °C 41 °F /  5 °C 29.8in /  1007.45hPa N 13mph /  21km/h 11.8mph /  19km/h 69% 0in /  0mm 77 W/m2
05:49 50 °F /  10 °C 41 °F /  5 °C 29.8in /  1007.52hPa N 14.9mph /  24km/h 13.7mph /  22km/h 68% 0in /  0mm 86 W/m2
05:54 50 °F /  10 °C 41 °F /  5 °C 29.8in /  1007.52hPa N 14.9mph /  24km/h 12.4mph /  20km/h 69% 0in /  0mm 88 W/m2
05:59 50 °F /  10 °C 41 °F /  5 °C 29.8in /  1007.62hPa NNW 14.9mph /  24km/h 13.7mph /  22km/h 68% 0in /  0mm 100 W/m2
06:04 50 °F /  10 °C 41 °F /  5 °C 29.8in /  1007.69hPa NNW 12.4mph /  20km/h 11.8mph /  19km/h 68% 0in /  0mm 113 W/m2
06:09 50 °F /  10 °C 41 °F /  5 °C 29.8in /  1007.72hPa N 12.4mph /  20km/h 11.2mph /  18km/h 68% 0in /  0mm 121 W/m2
06:14 51.8 °F /  11 °C 41 °F /  5 °C 29.8in /  1007.72hPa N 14.3mph /  23km/h 11.8mph /  19km/h 68% 0in /  0mm 132 W/m2
06:19 51.8 °F /  11 °C 41 °F /  5 °C 29.8in /  1007.72hPa NNW 14.3mph /  23km/h 12.4mph /  20km/h 67% 0in /  0mm 144 W/m2
06:24 51.8 °F /  11 °C 41 °F /  5 °C 29.8in /  1007.76hPa NNW 13.7mph /  22km/h 11.8mph /  19km/h 67% 0in /  0mm 155 W/m2
06:29 51.8 °F /  11 °C 41 °F /  5 °C 29.8in /  1007.72hPa NNW 14.3mph /  23km/h 12.4mph /  20km/h 67% 0in /  0mm 167 W/m2
06:34 51.8 °F /  11 °C 41 °F /  5 °C 29.8in /  1007.76hPa NNW 14.3mph /  23km/h 12.4mph /  20km/h 67% 0in /  0mm 181 W/m2
06:39 51.8 °F /  11 °C 41 °F /  5 °C 29.8in /  1007.76hPa N 14.9mph /  24km/h 13mph /  21km/h 66% 0in /  0mm 188 W/m2
06:44 51.8 °F /  11 °C 41 °F /  5 °C 29.8in /  1007.76hPa N 14.3mph /  23km/h 13mph /  21km/h 65% 0in /  0mm 200 W/m2
06:49 51.8 °F /  11 °C 41 °F /  5 °C 29.8in /  1007.82hPa N 14.9mph /  24km/h 13.7mph /  22km/h 65% 0in /  0mm 206 W/m2
06:54 51.8 °F /  11 °C 41 °F /  5 °C 29.8in /  1007.82hPa N 14.9mph /  24km/h 13.7mph /  22km/h 66% 0in /  0mm 211 W/m2
06:59 51.8 °F /  11 °C 41 °F /  5 °C 29.8in /  1007.86hPa NNW 16.2mph /  26km/h 13mph /  21km/h 66% 0in /  0mm 225 W/m2
07:04 53.6 °F /  12 °C 41 °F /  5 °C 29.8in /  1007.92hPa NNW 15.5mph /  25km/h 13.7mph /  22km/h 66% 0in /  0mm 236 W/m2
07:09 53.6 °F /  12 °C 41 °F /  5 °C 29.8in /  1007.96hPa N 14.3mph /  23km/h 13mph /  21km/h 65% 0in /  0mm 248 W/m2
07:14 53.6 °F /  12 °C 41 °F /  5 °C 29.8in /  1007.99hPa N 15.5mph /  25km/h 14.9mph /  24km/h 65% 0in /  0mm 258 W/m2
Compliments of Weather Underground - 2 mb